Airport View

Enter AWOS ICAO identifier for current METAR.

ex. KFNL

KSIF 011310Z AUTO 00000KT 10SM CLR 13/13 A3001 RMK AO2 T01290129

1 Oct 2020 13:09

Frequency: 119.775

Phone: 336-573-3677

Other Area AWOS: KMTV - KGSO - KINT - KBUY

TAF KGSO 011120Z 0112/0212 23008KT P6SM SKC FM020000 33010KT 6SM -SHRA BKN045 OVC090